createdAt,value
2022-10-25T00:02:24.944Z,86.08
2022-10-25T00:05:28.088Z,86.13
2022-10-25T00:08:31.090Z,86.15
2022-10-25T00:11:34.498Z,86.15
2022-10-25T00:14:37.480Z,86.16
2022-10-25T00:17:41.708Z,86.15
2022-10-25T00:20:46.826Z,86.11
2022-10-25T00:23:50.855Z,86.10
2022-10-25T00:26:53.763Z,86.09
2022-10-25T00:29:56.658Z,86.08
2022-10-25T00:32:59.774Z,86.04
2022-10-25T00:36:19.432Z,86.02
2022-10-25T00:39:22.285Z,85.97
2022-10-25T00:42:27.180Z,85.91
2022-10-25T00:45:30.213Z,85.88
2022-10-25T00:48:34.637Z,85.84
2022-10-25T00:51:50.745Z,85.81
2022-10-25T00:54:54.595Z,85.77
2022-10-25T00:58:06.773Z,85.72
2022-10-25T01:01:10.504Z,85.72
2022-10-25T01:04:17.393Z,85.71
2022-10-25T01:07:20.336Z,85.72
2022-10-25T01:10:23.229Z,85.68
2022-10-25T01:13:26.196Z,85.64
2022-10-25T01:16:48.889Z,85.58
2022-10-25T01:20:36.698Z,85.56
2022-10-25T01:24:06.042Z,85.50
2022-10-25T01:27:30.893Z,85.43
2022-10-25T01:30:48.938Z,85.33
2022-10-25T01:34:11.833Z,85.25
2022-10-25T01:37:22.561Z,85.17
2022-10-25T01:40:35.925Z,85.12
2022-10-25T01:43:57.332Z,85.08
2022-10-25T01:47:07.527Z,85.09
2022-10-25T01:50:17.756Z,85.04
2022-10-25T01:53:20.636Z,85.03
2022-10-25T01:56:39.320Z,85.04
2022-10-25T02:00:04.398Z,84.99
2022-10-25T02:03:33.876Z,84.95
2022-10-25T02:07:05.826Z,84.89
2022-10-25T02:10:28.699Z,84.83
2022-10-25T02:13:59.298Z,84.76
2022-10-25T02:17:10.894Z,84.66
2022-10-25T02:20:17.778Z,84.58
2022-10-25T02:23:21.506Z,84.55
2022-10-25T02:26:26.359Z,84.45
2022-10-25T02:29:32.108Z,84.29
2022-10-25T02:32:35.399Z,84.20
2022-10-25T02:35:39.238Z,84.09
2022-10-25T02:38:44.297Z,83.93
2022-10-25T02:41:47.131Z,83.63
2022-10-25T02:44:50.004Z,83.56
2022-10-25T02:47:52.922Z,83.52
2022-10-25T02:50:55.769Z,83.56
2022-10-25T02:53:58.817Z,83.64
2022-10-25T02:57:01.684Z,83.71
2022-10-25T03:00:07.797Z,83.74
2022-10-25T03:03:11.057Z,83.73
2022-10-25T03:06:14.793Z,83.68
2022-10-25T03:09:17.803Z,83.65
2022-10-25T03:12:20.774Z,83.55
2022-10-25T03:15:23.664Z,83.48
2022-10-25T03:18:26.673Z,83.40
2022-10-25T03:21:29.622Z,83.40
2022-10-25T03:24:32.588Z,83.39
2022-10-25T03:27:35.526Z,83.29
2022-10-25T03:30:38.594Z,83.15
2022-10-25T03:33:41.808Z,83.11
2022-10-25T03:36:44.735Z,83.15
2022-10-25T03:39:47.588Z,83.25
2022-10-25T03:42:50.510Z,83.34
2022-10-25T03:45:53.465Z,83.46
2022-10-25T03:48:57.478Z,83.55
2022-10-25T03:52:02.765Z,83.66
2022-10-25T03:55:08.976Z,83.76
2022-10-25T03:58:11.994Z,83.86
2022-10-25T04:01:16.834Z,83.96
2022-10-25T04:04:19.841Z,84.02
2022-10-25T04:07:22.802Z,84.06
2022-10-25T04:10:26.319Z,84.12
2022-10-25T04:13:29.201Z,84.14
2022-10-25T04:16:32.046Z,84.19
2022-10-25T04:19:34.967Z,84.20
2022-10-25T04:25:45.687Z,84.19
2022-10-25T04:28:53.351Z,84.18
2022-10-25T04:31:56.233Z,84.18
2022-10-25T04:34:59.100Z,84.19
2022-10-25T04:38:02.103Z,84.15
2022-10-25T04:41:05.181Z,84.14
2022-10-25T04:44:08.109Z,84.08
2022-10-25T04:47:11.082Z,84.04
2022-10-25T04:50:15.533Z,83.97
2022-10-25T04:53:18.588Z,83.91
2022-10-25T04:56:23.885Z,83.85
2022-10-25T04:59:26.798Z,83.81
2022-10-25T05:02:29.780Z,83.80
2022-10-25T05:05:32.674Z,83.81
2022-10-25T05:08:36.891Z,83.80
2022-10-25T05:11:39.886Z,83.80
2022-10-25T05:14:42.824Z,83.81
2022-10-25T05:17:45.697Z,83.78
2022-10-25T05:20:59.111Z,83.68
2022-10-25T05:24:02.649Z,83.59
2022-10-25T05:27:05.807Z,83.46
2022-10-25T05:30:09.971Z,83.38
2022-10-25T05:33:19.795Z,83.35
2022-10-25T05:36:25.530Z,83.32
2022-10-25T05:39:28.359Z,83.31
2022-10-25T05:42:31.239Z,83.31
2022-10-25T05:45:34.089Z,83.38
2022-10-25T05:48:37.747Z,83.41
2022-10-25T05:51:40.815Z,83.45
2022-10-25T05:54:43.689Z,83.54
2022-10-25T05:57:55.774Z,83.58
2022-10-25T06:01:00.716Z,83.64
2022-10-25T06:04:03.802Z,83.67
2022-10-25T06:07:06.806Z,83.61
2022-10-25T06:10:10.834Z,83.55
2022-10-25T06:13:13.895Z,83.32
2022-10-25T06:16:19.963Z,83.12
2022-10-25T06:19:22.928Z,82.92
2022-10-25T06:22:25.912Z,82.85
2022-10-25T06:25:29.310Z,82.99
2022-10-25T06:28:32.701Z,83.18
2022-10-25T06:31:35.697Z,83.34
2022-10-25T06:34:38.570Z,83.44
2022-10-25T06:37:41.420Z,83.55
2022-10-25T06:40:44.220Z,83.71
2022-10-25T06:43:47.465Z,83.91
2022-10-25T06:47:15.979Z,84.08
2022-10-25T06:50:15.819Z,84.13
2022-10-25T06:53:18.720Z,84.11
2022-10-25T06:56:21.608Z,84.12
2022-10-25T06:59:25.084Z,84.12
2022-10-25T07:02:28.255Z,84.17
2022-10-25T07:05:32.473Z,84.23
2022-10-25T07:08:37.095Z,84.35
2022-10-25T07:11:40.655Z,84.43
2022-10-25T07:14:43.722Z,84.43
2022-10-25T07:17:46.921Z,84.44
2022-10-25T07:20:50.839Z,84.36
2022-10-25T07:23:54.334Z,84.26
2022-10-25T07:26:57.309Z,84.11
2022-10-25T07:30:00.242Z,84.01
2022-10-25T07:33:03.404Z,84.03
2022-10-25T07:36:11.093Z,83.94
2022-10-25T07:39:14.644Z,83.94
2022-10-25T07:42:17.493Z,83.97
2022-10-25T07:45:23.625Z,83.90
2022-10-25T07:48:28.525Z,83.85
2022-10-25T07:51:31.585Z,83.85
2022-10-25T07:54:34.734Z,83.81
2022-10-25T07:57:37.771Z,83.76
2022-10-25T08:00:40.938Z,83.72
2022-10-25T08:03:43.826Z,83.67
2022-10-25T08:06:46.740Z,83.68
2022-10-25T08:09:49.594Z,83.69
2022-10-25T08:12:55.283Z,83.73
2022-10-25T08:15:58.870Z,83.71
2022-10-25T08:19:02.172Z,83.74
2022-10-25T08:22:05.105Z,83.76
2022-10-25T08:25:08.491Z,83.80
2022-10-25T08:28:11.485Z,83.86
2022-10-25T08:31:14.486Z,83.92
2022-10-25T08:34:17.543Z,83.94
2022-10-25T08:37:20.991Z,83.98
2022-10-25T08:40:47.507Z,84.06
2022-10-25T08:44:12.723Z,84.08
2022-10-25T08:47:21.196Z,84.07
2022-10-25T08:50:35.548Z,84.06
2022-10-25T08:53:43.738Z,84.00
2022-10-25T08:57:03.454Z,83.97
2022-10-25T09:00:23.985Z,83.89
2022-10-25T09:03:27.844Z,83.89
2022-10-25T09:07:08.475Z,83.96
2022-10-25T09:10:23.224Z,84.00
2022-10-25T09:13:50.869Z,84.19
2022-10-25T09:17:01.800Z,84.35
2022-10-25T09:20:15.710Z,84.08
2022-10-25T09:23:18.654Z,84.01
2022-10-25T09:26:32.506Z,84.00
2022-10-25T09:29:41.678Z,83.67
2022-10-25T09:32:51.391Z,83.71
2022-10-25T09:35:59.698Z,83.67
2022-10-25T09:39:15.757Z,83.56
2022-10-25T09:42:33.104Z,83.73
2022-10-25T09:45:55.758Z,84.00
2022-10-25T09:49:05.551Z,83.74
2022-10-25T09:52:35.328Z,83.63
2022-10-25T09:55:50.196Z,83.56
2022-10-25T09:58:53.422Z,83.50
2022-10-25T10:01:56.813Z,83.44
2022-10-25T10:04:59.806Z,83.17
2022-10-25T10:08:02.713Z,82.98
2022-10-25T10:11:07.180Z,82.74
2022-10-25T10:14:33.303Z,82.47
2022-10-25T10:17:38.226Z,82.32
2022-10-25T10:21:03.426Z,82.19
2022-10-25T10:24:06.640Z,82.14
2022-10-25T10:27:13.924Z,82.18
2022-10-25T10:30:31.405Z,82.25
2022-10-25T10:33:35.355Z,82.15
2022-10-25T10:36:38.409Z,81.98
2022-10-25T10:39:56.371Z,82.05
2022-10-25T10:43:00.476Z,81.96
2022-10-25T10:46:08.492Z,81.91
2022-10-25T10:49:11.924Z,81.88
2022-10-25T10:52:31.235Z,81.93
2022-10-25T10:55:38.028Z,82.02
2022-10-25T10:58:43.995Z,82.01
2022-10-25T11:01:47.074Z,81.99
2022-10-25T11:04:52.926Z,81.88
2022-10-25T11:08:17.434Z,81.72
2022-10-25T11:11:24.871Z,81.80
2022-10-25T11:14:28.028Z,81.78
2022-10-25T11:17:37.288Z,81.66
2022-10-25T11:20:43.269Z,81.60
2022-10-25T11:23:52.347Z,81.54
2022-10-25T11:27:29.155Z,81.26
2022-10-25T11:31:14.900Z,81.15
2022-10-25T11:34:39.581Z,80.91
2022-10-25T11:37:51.491Z,80.80
2022-10-25T11:41:28.392Z,80.71
2022-10-25T11:44:48.913Z,80.53
2022-10-25T11:48:06.710Z,80.25
2022-10-25T11:51:35.256Z,80.00
2022-10-25T11:55:09.981Z,79.69
2022-10-25T11:58:34.915Z,79.54
2022-10-25T12:01:56.410Z,79.55
2022-10-25T12:05:23.193Z,79.16
2022-10-25T12:09:00.183Z,79.19
2022-10-25T12:12:08.944Z,78.65
2022-10-25T12:15:21.694Z,78.46
2022-10-25T12:18:34.657Z,78.40
2022-10-25T12:21:55.687Z,78.13
2022-10-25T12:25:32.163Z,77.87
2022-10-25T12:28:48.755Z,77.79
2022-10-25T12:31:58.796Z,77.57
2022-10-25T12:35:05.163Z,77.59
2022-10-25T12:38:34.153Z,77.57
2022-10-25T12:41:40.280Z,77.66
2022-10-25T12:44:58.365Z,77.80
2022-10-25T12:48:26.144Z,77.89
2022-10-25T12:51:50.408Z,77.97
2022-10-25T12:54:59.705Z,78.10
2022-10-25T12:58:14.606Z,78.19
2022-10-25T13:01:28.793Z,78.15
2022-10-25T13:04:44.056Z,78.21
2022-10-25T13:07:48.843Z,78.21
2022-10-25T13:11:08.462Z,78.17
2022-10-25T13:14:24.442Z,77.98
2022-10-25T13:17:27.248Z,78.02
2022-10-25T13:20:39.642Z,77.94
2022-10-25T13:23:53.530Z,77.87
2022-10-25T13:27:14.693Z,77.56
2022-10-25T13:30:31.993Z,77.35
2022-10-25T13:33:35.505Z,77.25
2022-10-25T13:37:00.245Z,77.22
2022-10-25T13:40:06.097Z,77.21
2022-10-25T13:43:21.892Z,76.63
2022-10-25T13:46:30.754Z,76.41
2022-10-25T13:49:42.729Z,76.37
2022-10-25T13:52:58.967Z,76.02
2022-10-25T13:56:23.487Z,75.72
2022-10-25T13:59:49.592Z,75.74
2022-10-25T14:03:12.713Z,75.64
2022-10-25T14:06:30.907Z,75.68
2022-10-25T14:09:40.027Z,75.37
2022-10-25T14:12:48.699Z,75.18
2022-10-25T14:16:03.130Z,75.23
2022-10-25T14:19:14.231Z,75.20
2022-10-25T14:22:30.318Z,75.14
2022-10-25T14:25:39.583Z,75.10
2022-10-25T14:28:43.238Z,75.02
2022-10-25T14:31:46.387Z,74.97
2022-10-25T14:34:51.427Z,74.91
2022-10-25T14:37:54.579Z,74.96
2022-10-25T14:41:04.337Z,75.02
2022-10-25T14:44:21.999Z,74.94
2022-10-25T14:47:31.022Z,74.78
2022-10-25T14:50:33.987Z,74.55
2022-10-25T14:53:47.997Z,74.49
2022-10-25T14:57:00.583Z,74.18
2022-10-25T15:00:06.357Z,73.92
2022-10-25T15:03:15.915Z,73.81
2022-10-25T15:06:21.847Z,73.70
2022-10-25T15:12:52.125Z,73.33
2022-10-25T15:15:57.033Z,73.20
2022-10-25T15:19:09.299Z,73.15
2022-10-25T15:22:15.539Z,73.15
2022-10-25T15:25:21.585Z,73.38
2022-10-25T15:28:25.155Z,73.59
2022-10-25T15:31:30.731Z,73.79
2022-10-25T15:34:33.710Z,73.76
2022-10-25T15:37:39.212Z,73.88
2022-10-25T15:40:42.103Z,73.92
2022-10-25T15:43:45.015Z,73.88
2022-10-25T15:46:48.980Z,73.80
2022-10-25T15:49:53.370Z,73.73
2022-10-25T15:52:56.674Z,73.75
2022-10-25T15:55:59.632Z,73.77
2022-10-25T15:59:02.759Z,73.77
2022-10-25T16:02:20.840Z,73.78
2022-10-25T16:05:32.687Z,73.85
2022-10-25T16:11:48.425Z,73.85
2022-10-25T16:14:52.970Z,73.86
2022-10-25T16:17:55.843Z,73.89
2022-10-25T16:20:59.242Z,73.89
2022-10-25T16:24:02.153Z,73.95
2022-10-25T16:27:07.771Z,73.97
2022-10-25T16:30:19.163Z,73.95
2022-10-25T16:33:22.118Z,73.98
2022-10-25T16:36:25.013Z,74.00
2022-10-25T16:39:27.961Z,74.12
2022-10-25T16:42:33.531Z,74.13
2022-10-25T16:45:37.580Z,74.10
2022-10-25T16:48:40.437Z,74.06
2022-10-25T16:51:44.359Z,74.09
2022-10-25T16:54:47.637Z,74.07
2022-10-25T16:57:50.907Z,74.11
2022-10-25T17:00:54.061Z,74.27
2022-10-25T17:03:56.953Z,74.33
2022-10-25T17:07:00.819Z,74.30
2022-10-25T17:10:03.767Z,74.24
2022-10-25T17:13:06.778Z,74.21
2022-10-25T17:16:13.233Z,74.19
2022-10-25T17:19:16.124Z,74.23
2022-10-25T17:22:20.597Z,74.17
2022-10-25T17:25:23.586Z,74.16
2022-10-25T17:28:26.688Z,74.09
2022-10-25T17:31:29.969Z,74.06
2022-10-25T17:34:32.846Z,74.04
2022-10-25T17:37:35.815Z,74.00
2022-10-25T17:40:44.173Z,73.97
2022-10-25T17:43:50.015Z,73.95
2022-10-25T17:46:58.315Z,73.93
2022-10-25T17:50:05.158Z,73.82
2022-10-25T17:53:09.714Z,73.82
2022-10-25T17:56:18.238Z,73.81
2022-10-25T17:59:21.198Z,73.84
2022-10-25T18:02:24.187Z,73.85
2022-10-25T18:05:27.115Z,73.88
2022-10-25T18:08:30.223Z,73.92
2022-10-25T18:11:33.180Z,73.99
2022-10-25T18:14:36.255Z,74.13
2022-10-25T18:17:40.762Z,74.19
2022-10-25T18:20:45.004Z,74.24
2022-10-25T18:23:55.101Z,74.27
2022-10-25T18:26:58.599Z,74.32
2022-10-25T18:30:02.272Z,74.35
2022-10-25T18:33:16.249Z,74.45
2022-10-25T18:36:19.946Z,74.48
2022-10-25T18:39:23.427Z,74.66
2022-10-25T18:42:26.333Z,74.68
2022-10-25T18:45:30.752Z,74.76
2022-10-25T18:48:35.812Z,74.83
2022-10-25T18:51:39.094Z,74.90
2022-10-25T18:54:44.950Z,74.98
2022-10-25T18:57:47.950Z,75.10
2022-10-25T19:00:51.270Z,75.19
2022-10-25T19:03:57.321Z,75.28
2022-10-25T19:07:00.380Z,75.30
2022-10-25T19:10:03.482Z,75.32
2022-10-25T19:13:08.270Z,75.35
2022-10-25T19:16:13.404Z,75.34
2022-10-25T19:19:16.367Z,75.37
2022-10-25T19:22:19.213Z,75.37
2022-10-25T19:25:23.899Z,75.43
2022-10-25T19:28:27.012Z,75.50
2022-10-25T19:31:29.849Z,75.48
2022-10-25T19:34:32.921Z,75.48
2022-10-25T19:37:39.237Z,75.51
2022-10-25T19:40:45.395Z,75.54
2022-10-25T19:43:48.612Z,75.51
2022-10-25T19:46:52.197Z,75.51
2022-10-25T19:49:55.027Z,75.41
2022-10-25T19:52:58.053Z,75.41
2022-10-25T19:56:03.389Z,75.27
2022-10-25T19:59:06.969Z,75.12
2022-10-25T20:02:10.314Z,75.10
2022-10-25T20:05:13.494Z,75.19
2022-10-25T20:08:16.334Z,75.16
2022-10-25T20:11:20.966Z,75.17
2022-10-25T20:14:23.778Z,75.06
2022-10-25T20:17:26.686Z,75.19
2022-10-25T20:20:29.578Z,75.28
2022-10-25T20:23:32.378Z,75.24
2022-10-25T20:26:38.147Z,75.36
2022-10-25T20:29:41.011Z,75.50
2022-10-25T20:32:43.915Z,75.60
2022-10-25T20:35:46.897Z,75.54
2022-10-25T20:38:50.427Z,75.50
2022-10-25T20:41:53.302Z,75.52
2022-10-25T20:44:56.259Z,75.67
2022-10-25T20:48:00.152Z,75.89
2022-10-25T20:51:06.825Z,76.18
2022-10-25T20:54:10.982Z,76.29
2022-10-25T20:57:13.772Z,76.42
2022-10-25T21:00:19.730Z,76.52
2022-10-25T21:03:25.581Z,76.56
2022-10-25T21:06:28.525Z,76.37
2022-10-25T21:09:31.358Z,76.21
2022-10-25T21:12:34.720Z,76.05
2022-10-25T21:15:37.902Z,75.97
2022-10-25T21:18:42.552Z,75.99
2022-10-25T21:21:45.407Z,76.13
2022-10-25T21:24:48.309Z,76.27
2022-10-25T21:27:54.602Z,76.22
2022-10-25T21:31:01.277Z,76.14
2022-10-25T21:34:04.683Z,76.20
2022-10-25T21:37:07.679Z,76.35
2022-10-25T21:40:10.740Z,76.31
2022-10-25T21:43:13.632Z,76.20
2022-10-25T21:46:17.928Z,76.19
2022-10-25T21:49:20.718Z,76.36
2022-10-25T21:52:23.652Z,76.58
2022-10-25T21:55:26.550Z,76.73
2022-10-25T21:58:29.380Z,76.91
2022-10-25T22:01:33.014Z,76.96
2022-10-25T22:04:36.109Z,77.03
2022-10-25T22:07:39.171Z,77.05
2022-10-25T22:10:42.219Z,77.14
2022-10-25T22:13:46.114Z,77.24
2022-10-25T22:16:49.215Z,77.27
2022-10-25T22:19:52.306Z,77.35
2022-10-25T22:22:55.349Z,77.47
2022-10-25T22:26:19.736Z,77.53
2022-10-25T22:29:22.816Z,77.58
2022-10-25T22:32:25.849Z,77.67
2022-10-25T22:35:28.926Z,77.71
2022-10-25T22:38:31.952Z,77.74
2022-10-25T22:41:35.449Z,77.76
2022-10-25T22:44:39.311Z,77.77
2022-10-25T22:47:42.413Z,77.72
2022-10-25T22:50:54.064Z,77.65
2022-10-25T22:53:57.746Z,77.64
2022-10-25T22:57:00.792Z,77.55
2022-10-25T23:00:04.178Z,77.44
2022-10-25T23:03:07.263Z,77.31
2022-10-25T23:06:12.847Z,77.14
2022-10-25T23:09:15.963Z,77.11
2022-10-25T23:12:19.257Z,77.03
2022-10-25T23:15:22.343Z,76.72
2022-10-25T23:18:26.191Z,76.45
2022-10-25T23:21:31.055Z,76.45
2022-10-25T23:24:34.195Z,76.42
2022-10-25T23:27:37.273Z,76.43
2022-10-25T23:30:41.283Z,76.50
2022-10-25T23:33:45.014Z,76.61
2022-10-25T23:36:48.767Z,76.47
2022-10-25T23:39:51.807Z,76.23
2022-10-25T23:43:08.573Z,76.20
2022-10-25T23:46:12.123Z,76.27
2022-10-25T23:49:15.191Z,76.25
2022-10-25T23:52:18.466Z,76.30
2022-10-25T23:55:21.583Z,76.18
2022-10-25T23:58:24.658Z,76.21
